Time;durP1;ratioP1;P1;durP2;ratioP2;P2;SDS_P1;SDS_P2;PMS_P1;PMS_P2;Temp;Humidity;BMP_temperature;BMP_pressure;BME280_temperature;BME280_humidity;BME280_pressure;Samples;Min_cycle;Max_cycle;Signal;HPM_P1;HPM_P2
2021/01/13 00:01:50;;;;;;;15.88;7.65;;;1.10;99.90;;;;;;5034295;28;20633;-71
2021/01/13 00:04:17;;;;;;;13.75;8.25;;;1.10;99.90;;;;;;5045643;28;20059;-72
2021/01/13 00:06:43;;;;;;;14.40;7.15;;;1.10;99.90;;;;;;5035478;28;20068;-72
2021/01/13 00:09:10;;;;;;;18.17;8.30;;;1.10;99.90;;;;;;5033493;28;20063;-72
2021/01/13 00:11:36;;;;;;;14.88;7.82;;;1.10;99.90;;;;;;5056656;28;20103;-72
2021/01/13 00:14:03;;;;;;;15.95;7.95;;;1.00;99.90;;;;;;5048431;28;20715;-72
2021/01/13 00:16:29;;;;;;;11.70;7.72;;;1.10;99.90;;;;;;5051173;28;20052;-72
2021/01/13 00:18:55;;;;;;;15.25;7.20;;;1.10;99.90;;;;;;5046742;28;20102;-71
2021/01/13 00:21:22;;;;;;;15.70;7.43;;;1.10;99.90;;;;;;5050964;28;20055;-71
2021/01/13 00:24:08;;;;;;;14.48;6.63;;;1.20;99.90;;;;;;5063871;28;20110;-72
2021/01/13 00:26:34;;;;;;;14.15;6.53;;;1.20;99.90;;;;;;5055310;28;20049;-71
2021/01/13 00:29:01;;;;;;;18.02;7.45;;;1.20;99.90;;;;;;5030078;28;20541;-71
2021/01/13 00:31:28;;;;;;;12.32;7.38;;;1.20;99.90;;;;;;5042107;28;20183;-72
2021/01/13 00:33:54;;;;;;;16.17;7.38;;;1.20;99.90;;;;;;5040520;28;20124;-72
2021/01/13 00:36:29;;;;;;;15.73;7.60;;;1.10;99.90;;;;;;5044693;28;20113;-72
2021/01/13 00:38:56;;;;;;;21.20;9.13;;;1.20;99.90;;;;;;5048451;28;20136;-72
2021/01/13 00:41:22;;;;;;;16.80;7.68;;;1.10;99.90;;;;;;5056631;28;20067;-71
2021/01/13 00:43:50;;;;;;;17.23;10.15;;;1.10;99.90;;;;;;5067429;28;20518;-72
2021/01/13 00:46:17;;;;;;;19.15;9.25;;;1.10;99.90;;;;;;5048673;28;20109;-72
2021/01/13 00:48:45;;;;;;;16.27;8.45;;;1.10;99.90;;;;;;5065086;28;20041;-72
2021/01/13 00:51:12;;;;;;;14.95;7.50;;;1.20;99.90;;;;;;5055556;28;20057;-72
2021/01/13 00:53:38;;;;;;;16.00;8.45;;;1.10;99.90;;;;;;5029350;28;20643;-71
2021/01/13 00:56:06;;;;;;;17.67;8.75;;;1.10;99.90;;;;;;5046659;28;20048;-72
2021/01/13 00:58:33;;;;;;;13.75;9.20;;;1.10;99.90;;;;;;5047439;28;20103;-72
2021/01/13 01:01:01;;;;;;;20.00;9.40;;;1.20;99.90;;;;;;5040747;28;20083;-72
2021/01/13 01:03:27;;;;;;;14.90;8.55;;;1.20;99.90;;;;;;5029479;28;20041;-72
2021/01/13 01:06:00;;;;;;;13.23;7.68;;;1.20;99.90;;;;;;5052503;28;20045;-72
2021/01/13 01:08:27;;;;;;;18.60;8.75;;;1.20;99.90;;;;;;5068758;28;20048;-72
2021/01/13 01:10:54;;;;;;;18.08;9.60;;;1.10;99.90;;;;;;5050408;28;20052;-71
2021/01/13 01:13:20;;;;;;;17.60;9.25;;;1.10;99.90;;;;;;5047858;28;20052;-72
2021/01/13 01:15:47;;;;;;;18.45;10.15;;;1.10;99.90;;;;;;5062894;28;20049;-72
2021/01/13 01:18:13;;;;;;;17.70;10.65;;;1.20;99.90;;;;;;5066115;28;20160;-71
2021/01/13 01:20:40;;;;;;;26.48;11.15;;;1.10;99.90;;;;;;5030520;28;20068;-71
2021/01/13 01:23:06;;;;;;;18.02;10.82;;;1.10;99.90;;;;;;5064368;28;20080;-72
2021/01/13 01:25:32;;;;;;;16.23;10.32;;;1.10;99.90;;;;;;5048798;28;20052;-71
2021/01/13 01:28:00;;;;;;;13.35;9.88;;;1.10;99.90;;;;;;5065780;28;20127;-72
2021/01/13 01:30:28;;;;;;;21.45;11.77;;;1.10;99.90;;;;;;5047276;28;20064;-72
2021/01/13 01:32:55;;;;;;;22.42;12.27;;;1.20;99.90;;;;;;5079786;28;20052;-71
2021/01/13 01:35:22;;;;;;;20.27;11.32;;;1.20;99.90;;;;;;5061853;28;20048;-71
2021/01/13 01:37:51;;;;;;;18.48;12.10;;;1.10;99.90;;;;;;5080457;28;20135;-71
2021/01/13 01:40:19;;;;;;;24.48;14.15;;;1.10;99.90;;;;;;5064845;28;20080;-71
2021/01/13 01:42:51;;;;;;;24.88;13.27;;;1.10;99.90;;;;;;5047103;28;20052;-71
2021/01/13 01:45:24;;;;;;;17.10;11.65;;;1.10;99.90;;;;;;5049455;28;20067;-71
2021/01/13 01:48:16;;;;;;;17.58;13.27;;;1.00;99.90;;;;;;5043286;28;20093;-71
2021/01/13 01:50:47;;;;;;;24.00;12.57;;;1.00;99.90;;;;;;5048964;28;20515;-71
2021/01/13 01:53:13;;;;;;;21.02;11.77;;;1.00;99.90;;;;;;5044305;28;20063;-71
2021/01/13 01:55:51;;;;;;;22.63;13.13;;;1.00;99.90;;;;;;5045488;28;20049;-71
2021/01/13 01:58:30;;;;;;;22.65;13.25;;;1.00;99.90;;;;;;5012095;28;20053;-71
2021/01/13 02:00:59;;;;;;;23.63;13.30;;;1.00;99.90;;;;;;5023428;28;20562;-71
2021/01/13 02:03:46;;;;;;;21.85;14.02;;;1.00;99.90;;;;;;5036291;28;20163;-71
2021/01/13 02:06:16;;;;;;;26.45;14.10;;;1.00;99.90;;;;;;5029026;28;20808;-71
2021/01/13 02:08:43;;;;;;;18.42;13.30;;;1.00;99.90;;;;;;5046456;28;20095;-71
2021/01/13 02:11:18;;;;;;;24.75;14.70;;;1.00;99.90;;;;;;5042213;28;20048;-71
2021/01/13 02:13:47;;;;;;;23.90;13.80;;;1.10;99.90;;;;;;5026180;28;20566;-71
2021/01/13 02:16:16;;;;;;;33.85;12.27;;;1.00;99.90;;;;;;5052724;28;20048;-71
2021/01/13 02:18:49;;;;;;;23.42;13.45;;;1.00;99.90;;;;;;5062802;28;20052;-70
2021/01/13 02:21:17;;;;;;;21.02;12.48;;;1.00;99.90;;;;;;5042092;28;20664;-71
2021/01/13 02:24:07;;;;;;;18.80;12.25;;;1.00;99.90;;;;;;5062728;28;20044;-71
2021/01/13 02:27:08;;;;;;;17.73;10.82;;;1.00;99.90;;;;;;4998235;28;20131;-71
2021/01/13 02:30:00;;;;;;;18.05;12.20;;;1.00;99.90;;;;;;5020959;28;20068;-70
2021/01/13 02:32:34;;;;;;;21.33;11.82;;;1.10;99.90;;;;;;5059114;28;20047;-71
2021/01/13 02:35:09;;;;;;;25.57;14.13;;;1.00;99.90;;;;;;5058029;28;20442;-71
2021/01/13 02:37:56;;;;;;;18.30;11.52;;;1.00;99.90;;;;;;5035362;28;20106;-70
2021/01/13 02:40:24;;;;;;;20.27;11.75;;;1.00;99.90;;;;;;5070366;28;20521;-71
2021/01/13 02:43:10;;;;;;;17.77;10.85;;;1.00;99.90;;;;;;5044767;28;20502;-71
2021/01/13 02:45:43;;;;;;;19.73;10.60;;;1.00;99.90;;;;;;5055078;28;20045;-71
2021/01/13 02:48:14;;;;;;;17.58;10.75;;;1.00;99.90;;;;;;5060388;28;20052;-71
2021/01/13 02:50:52;;;;;;;17.75;11.68;;;1.00;99.90;;;;;;5046679;28;20060;-71
2021/01/13 02:53:21;;;;;;;29.50;12.35;;;1.00;99.90;;;;;;5046450;28;20045;-71
2021/01/13 02:55:47;;;;;;;12.70;10.38;;;0.90;99.90;;;;;;5062290;28;20056;-72
2021/01/13 02:58:36;;;;;;;18.20;11.07;;;1.00;99.90;;;;;;5064988;28;20056;-71
2021/01/13 03:01:09;;;;;;;28.05;11.52;;;1.00;99.90;;;;;;5062496;28;20063;-72
2021/01/13 03:03:37;;;;;;;18.15;12.00;;;1.00;99.90;;;;;;5046270;28;20054;-71
2021/01/13 03:06:08;;;;;;;14.95;10.15;;;1.00;99.90;;;;;;5062529;28;20078;-72
2021/01/13 03:09:00;;;;;;;17.25;11.70;;;1.00;99.90;;;;;;5063645;28;20044;-71
2021/01/13 03:11:26;;;;;;;18.70;12.10;;;1.00;99.90;;;;;;5061525;28;20056;-72
2021/01/13 03:14:16;;;;;;;23.77;12.38;;;1.00;99.90;;;;;;5029729;28;20083;-72
2021/01/13 03:17:08;;;;;;;17.08;11.40;;;1.10;99.90;;;;;;5058026;28;20041;-72
2021/01/13 03:19:55;;;;;;;17.55;11.05;;;1.10;99.90;;;;;;5039371;28;20044;-72
2021/01/13 03:22:29;;;;;;;19.85;13.27;;;1.10;99.90;;;;;;5034468;28;20052;-72
2021/01/13 03:25:04;;;;;;;16.55;10.80;;;1.10;99.90;;;;;;5026855;28;20426;-71
2021/01/13 03:27:33;;;;;;;18.55;13.98;;;1.10;99.90;;;;;;5061466;28;20514;-72
2021/01/13 03:30:05;;;;;;;19.70;13.55;;;1.10;99.90;;;;;;5045435;28;20682;-71
2021/01/13 03:32:49;;;;;;;17.00;10.82;;;1.20;99.90;;;;;;5033509;28;20041;-71
2021/01/13 03:35:16;;;;;;;20.63;12.18;;;1.10;99.90;;;;;;5042247;28;20418;-72
2021/01/13 03:38:00;;;;;;;18.52;11.27;;;1.10;99.90;;;;;;5042635;28;20454;-72
2021/01/13 03:40:31;;;;;;;18.15;11.13;;;1.20;99.90;;;;;;5025925;28;20036;-71
2021/01/13 03:43:00;;;;;;;14.93;12.20;;;1.10;99.90;;;;;;5026322;28;20049;-72
2021/01/13 03:45:36;;;;;;;19.80;10.63;;;1.10;99.90;;;;;;5008644;28;20453;-71
2021/01/13 03:48:18;;;;;;;17.75;11.85;;;1.20;99.90;;;;;;5022313;28;20152;-71
2021/01/13 03:50:46;;;;;;;20.25;13.15;;;1.10;99.90;;;;;;5042099;28;20623;-72
2021/01/13 03:53:14;;;;;;;22.70;11.68;;;1.10;99.90;;;;;;5042777;28;20049;-72
2021/01/13 03:55:43;;;;;;;15.60;11.25;;;1.20;99.90;;;;;;5025584;28;20265;-72
2021/01/13 03:58:09;;;;;;;14.45;12.20;;;1.20;99.90;;;;;;5026420;28;20160;-71
2021/01/13 04:01:20;;;;;;;16.35;11.05;;;1.20;99.90;;;;;;5025673;28;20064;-71
2021/01/13 04:04:33;;;;;;;12.60;11.30;;;1.20;99.90;;;;;;4980469;28;20120;-71
2021/01/13 04:07:01;;;;;;;17.23;11.57;;;1.20;99.90;;;;;;4929983;28;20047;-72
2021/01/13 04:09:31;;;;;;;17.85;10.85;;;1.20;99.90;;;;;;4973867;28;20798;-71
2021/01/13 04:12:10;;;;;;;19.95;11.25;;;1.20;99.90;;;;;;5048333;28;20041;-71
2021/01/13 04:14:49;;;;;;;21.20;11.90;;;1.20;99.90;;;;;;5058587;28;20102;-71
2021/01/13 04:17:17;;;;;;;15.50;10.35;;;1.20;99.90;;;;;;5061701;28;20045;-71
2021/01/13 04:19:45;;;;;;;15.38;11.93;;;1.20;99.90;;;;;;5066310;28;20044;-71
2021/01/13 04:22:17;;;;;;;15.77;12.27;;;1.20;99.90;;;;;;5059637;28;20063;-71
2021/01/13 04:24:46;;;;;;;17.85;11.48;;;1.20;99.90;;;;;;5066668;28;20080;-71
2021/01/13 04:27:16;;;;;;;15.63;11.38;;;1.20;99.90;;;;;;5065711;28;20055;-70
2021/01/13 04:29:44;;;;;;;19.10;11.93;;;1.20;99.90;;;;;;5067472;28;20049;-71
2021/01/13 04:32:11;;;;;;;21.30;13.13;;;1.20;99.90;;;;;;5056877;28;20041;-72
2021/01/13 04:34:39;;;;;;;19.90;12.70;;;1.20;99.90;;;;;;5062233;28;20048;-71
2021/01/13 04:37:07;;;;;;;18.00;12.70;;;1.20;99.90;;;;;;5045227;28;20148;-70
2021/01/13 04:39:36;;;;;;;16.38;11.15;;;1.20;99.90;;;;;;5046475;28;20045;-71
2021/01/13 04:42:02;;;;;;;19.33;12.43;;;1.20;99.90;;;;;;5062006;28;20174;-71
2021/01/13 04:44:34;;;;;;;16.08;11.77;;;1.20;99.90;;;;;;5048174;28;20216;-71
2021/01/13 04:47:07;;;;;;;21.85;12.95;;;1.20;99.90;;;;;;5065613;28;20450;-71
2021/01/13 04:49:35;;;;;;;23.45;13.68;;;1.20;99.90;;;;;;5048796;28;20048;-71
2021/01/13 04:52:18;;;;;;;14.93;12.02;;;1.20;99.90;;;;;;5065075;28;20729;-71
2021/01/13 04:54:47;;;;;;;16.00;12.50;;;1.20;99.90;;;;;;5048955;28;20181;-71
2021/01/13 04:57:20;;;;;;;13.35;11.57;;;1.20;99.90;;;;;;5046664;28;20053;-71
2021/01/13 05:00:09;;;;;;;26.35;12.93;;;1.20;99.90;;;;;;5043712;28;20048;-71
2021/01/13 05:02:55;;;;;;;17.98;12.38;;;1.20;99.90;;;;;;5043381;28;20045;-71
2021/01/13 05:05:21;;;;;;;;;;;1.20;99.90;;;;;;5028956;28;20053;-71
2021/01/13 05:08:25;;;;;;;20.67;12.50;;;1.20;99.90;;;;;;5043252;28;20007;-72
2021/01/13 05:10:57;;;;;;;19.05;12.55;;;1.20;99.90;;;;;;5025528;28;22088;-71
2021/01/13 05:13:24;;;;;;;16.00;10.93;;;1.20;99.90;;;;;;5042208;28;20053;-71
2021/01/13 05:15:55;;;;;;;13.45;12.15;;;1.20;99.90;;;;;;5042563;28;20057;-72
2021/01/13 05:18:51;;;;;;;14.90;12.60;;;1.20;99.90;;;;;;5028359;28;20172;-71
2021/01/13 05:21:24;;;;;;;14.32;12.48;;;1.30;99.90;;;;;;5033747;28;20063;-71
2021/01/13 05:23:53;;;;;;;18.80;13.80;;;1.30;99.90;;;;;;5045714;28;20067;-73
2021/01/13 05:26:21;;;;;;;18.15;13.05;;;1.30;99.90;;;;;;5028175;28;20044;-71
2021/01/13 05:29:18;;;;;;;16.42;12.30;;;1.40;99.90;;;;;;5028025;28;20051;-71
2021/01/13 05:31:49;;;;;;;10.30;9.50;;;1.30;99.90;;;;;;5039435;28;20057;-71
2021/01/13 05:34:17;;;;;;;17.98;12.90;;;1.40;99.90;;;;;;5041548;28;20041;-71
2021/01/13 05:37:14;;;;;;;17.13;12.57;;;1.30;99.90;;;;;;5056310;28;20045;-71
2021/01/13 05:39:42;;;;;;;13.25;11.98;;;1.30;99.90;;;;;;5031353;28;20641;-71
2021/01/13 05:42:09;;;;;;;22.33;14.95;;;1.30;99.90;;;;;;5047130;28;20185;-71
2021/01/13 05:44:36;;;;;;;19.65;12.32;;;1.30;99.90;;;;;;5043786;28;20048;-70
2021/01/13 05:47:06;;;;;;;17.70;14.27;;;1.30;99.90;;;;;;5027066;28;20241;-71
2021/01/13 05:49:33;;;;;;;17.88;14.88;;;1.20;99.90;;;;;;5043674;28;20123;-71
2021/01/13 05:52:07;;;;;;;16.30;14.05;;;1.20;99.90;;;;;;5026693;28;20041;-72
2021/01/13 05:54:38;;;;;;;19.33;14.90;;;1.20;99.90;;;;;;5027827;28;20059;-71
2021/01/13 05:57:06;;;;;;;24.55;14.50;;;1.20;99.90;;;;;;5044757;28;20664;-71
2021/01/13 05:59:34;;;;;;;18.77;12.95;;;1.30;99.90;;;;;;5040150;28;20064;-71
2021/01/13 06:02:03;;;;;;;20.88;14.50;;;1.30;99.90;;;;;;5040634;28;20531;-71
2021/01/13 06:04:30;;;;;;;25.92;14.65;;;1.30;99.90;;;;;;5045145;28;20040;-72
2021/01/13 06:07:03;;;;;;;16.05;12.20;;;1.30;99.90;;;;;;5023274;28;20049;-72
2021/01/13 06:09:36;;;;;;;15.45;12.27;;;1.30;99.90;;;;;;5016408;28;20049;-71
2021/01/13 06:12:05;;;;;;;21.80;12.50;;;1.30;99.90;;;;;;5036160;28;20140;-71
2021/01/13 06:14:34;;;;;;;17.98;12.43;;;1.30;99.90;;;;;;5042381;28;20048;-71
2021/01/13 06:17:04;;;;;;;22.38;13.55;;;1.30;99.90;;;;;;5025712;28;20049;-71
2021/01/13 06:19:32;;;;;;;28.00;14.65;;;1.40;99.90;;;;;;5044626;28;20107;-72
2021/01/13 06:22:09;;;;;;;19.05;12.43;;;1.40;99.90;;;;;;5025162;28;20162;-71
2021/01/13 06:24:36;;;;;;;18.90;12.40;;;1.40;99.90;;;;;;5044794;28;20063;-71
2021/01/13 06:27:17;;;;;;;21.02;13.50;;;1.30;99.90;;;;;;5026337;28;20045;-71
2021/01/13 06:29:49;;;;;;;21.05;13.18;;;1.40;99.90;;;;;;5026382;28;20040;-71
2021/01/13 06:32:26;;;;;;;24.38;14.90;;;1.40;99.90;;;;;;5036816;28;20045;-71
2021/01/13 06:35:22;;;;;;;19.00;14.95;;;1.30;99.90;;;;;;5017355;28;20545;-71
2021/01/13 06:37:51;;;;;;;16.27;12.93;;;1.40;99.90;;;;;;4992017;28;20127;-71
2021/01/13 06:40:20;;;;;;;20.13;13.63;;;1.40;99.90;;;;;;5014309;28;20149;-72
2021/01/13 06:42:46;;;;;;;18.23;13.95;;;1.30;99.90;;;;;;5040929;28;20076;-71
2021/01/13 06:45:14;;;;;;;20.17;14.50;;;1.30;99.90;;;;;;5042586;28;20048;-71
2021/01/13 06:47:54;;;;;;;22.40;14.60;;;1.20;99.90;;;;;;5041743;28;20037;-71
2021/01/13 06:50:54;;;;;;;17.67;12.80;;;1.30;99.90;;;;;;5026027;28;20604;-71
2021/01/13 06:53:22;;;;;;;28.25;15.27;;;1.30;99.90;;;;;;5032746;28;20124;-70
2021/01/13 06:55:52;;;;;;;19.90;14.50;;;1.30;99.90;;;;;;5044038;28;20753;-71
2021/01/13 06:58:19;;;;;;;18.20;14.32;;;1.30;99.90;;;;;;5027205;28;20517;-72
2021/01/13 07:00:47;;;;;;;25.63;15.00;;;1.30;99.90;;;;;;5045190;28;20045;-71
2021/01/13 07:03:30;;;;;;;27.27;15.38;;;1.30;99.90;;;;;;5042978;28;20454;-72
2021/01/13 07:06:00;;;;;;;19.00;15.05;;;1.30;99.90;;;;;;5022922;28;20073;-71
2021/01/13 07:08:27;;;;;;;29.90;17.23;;;1.20;99.90;;;;;;5026309;28;20051;-72
2021/01/13 07:11:05;;;;;;;25.20;16.30;;;1.20;99.90;;;;;;5029971;28;20133;-71
2021/01/13 07:13:33;;;;;;;29.55;20.52;;;1.20;99.90;;;;;;5041896;28;20156;-71
2021/01/13 07:16:01;;;;;;;33.90;19.85;;;1.20;99.90;;;;;;5037133;28;20049;-71
2021/01/13 07:18:28;;;;;;;30.75;20.23;;;1.10;99.90;;;;;;5045289;28;20040;-72
2021/01/13 07:20:55;;;;;;;34.65;23.15;;;1.00;99.90;;;;;;5033433;28;20049;-72
2021/01/13 07:23:22;;;;;;;30.30;22.67;;;1.10;99.90;;;;;;5024068;28;20052;-71
2021/01/13 07:25:49;;;;;;;46.22;28.35;;;1.00;99.90;;;;;;5039350;28;20044;-72
2021/01/13 07:28:36;;;;;;;45.25;28.10;;;1.00;99.90;;;;;;5040249;28;20060;-72
2021/01/13 07:31:04;;;;;;;32.50;22.92;;;1.00;99.90;;;;;;5023128;28;20050;-73
2021/01/13 07:33:44;;;;;;;48.97;29.35;;;0.90;99.90;;;;;;5026159;28;20041;-72
2021/01/13 07:36:17;;;;;;;43.20;27.45;;;1.00;99.90;;;;;;5035623;28;20041;-71
2021/01/13 07:38:48;;;;;;;36.22;24.80;;;0.90;99.90;;;;;;5067021;28;20076;-73
2021/01/13 07:41:47;;;;;;;35.38;22.40;;;0.90;99.90;;;;;;5066261;28;20391;-72
2021/01/13 07:44:53;;;;;;;45.83;28.52;;;1.00;99.90;;;;;;5068635;28;20048;-73
2021/01/13 07:47:28;;;;;;;44.05;29.02;;;0.90;99.90;;;;;;4991227;28;20065;-73
2021/01/13 07:50:08;;;;;;;41.20;27.38;;;0.90;99.90;;;;;;5061231;28;20049;-71
2021/01/13 07:52:48;;;;;;;50.47;33.08;;;0.80;99.90;;;;;;5045660;28;20045;-73
2021/01/13 07:55:17;;;;;;;51.08;29.00;;;0.90;99.90;;;;;;5048903;28;20044;-73
2021/01/13 07:57:50;;;;;;;50.58;31.45;;;0.90;99.90;;;;;;5070828;28;20048;-72
2021/01/13 08:00:32;;;;;;;49.63;32.20;;;0.80;99.90;;;;;;5049019;28;20107;-73
2021/01/13 08:03:18;;;;;;;52.55;35.08;;;0.80;99.90;;;;;;5030279;28;20041;-73
2021/01/13 08:06:35;;;;;;;55.72;35.03;;;0.80;99.90;;;;;;5027269;28;20041;-73
2021/01/13 08:09:08;;;;;;;53.58;31.55;;;0.80;99.90;;;;;;4997470;28;20050;-71
2021/01/13 08:12:03;;;;;;;54.45;33.92;;;0.80;99.90;;;;;;5001039;28;20762;-73
2021/01/13 08:14:50;;;;;;;59.60;34.80;;;0.80;99.90;;;;;;5038091;28;20053;-71
2021/01/13 08:17:46;;;;;;;55.80;35.00;;;0.80;99.90;;;;;;5029472;28;20069;-72
2021/01/13 08:20:31;;;;;;;60.28;36.33;;;0.80;99.90;;;;;;5041149;28;20083;-73
2021/01/13 08:23:16;;;;;;;65.63;38.15;;;0.90;99.90;;;;;;5026014;28;20071;-72
2021/01/13 08:26:02;;;;;;;62.65;36.53;;;0.90;99.90;;;;;;5034693;28;20049;-72
2021/01/13 08:28:37;;;;;;;55.20;33.45;;;0.90;99.90;;;;;;5030610;28;20056;-72
2021/01/13 08:31:04;;;;;;;;;;;0.90;99.90;;;;;;5026844;28;20049;-71
2021/01/13 08:33:35;;;;;;;66.60;36.25;;;0.90;99.90;;;;;;5045058;28;19979;-72
2021/01/13 08:36:10;;;;;;;80.03;36.95;;;0.90;99.90;;;;;;5041165;28;20492;-74
2021/01/13 08:38:58;;;;;;;69.53;36.97;;;0.90;99.90;;;;;;5039737;28;20037;-73
2021/01/13 08:41:25;;;;;;;59.20;31.67;;;1.00;99.90;;;;;;5029853;28;20047;-73
2021/01/13 08:44:12;;;;;;;58.58;35.33;;;0.90;99.90;;;;;;5047907;28;20495;-73
2021/01/13 08:47:00;;;;;;;73.57;36.75;;;0.90;99.90;;;;;;5026688;28;20037;-73
2021/01/13 08:49:29;;;;;;;71.13;37.60;;;0.90;99.90;;;;;;5019440;28;20471;-74
2021/01/13 08:52:24;;;;;;;67.70;37.10;;;0.90;99.90;;;;;;5026204;28;20055;-73
2021/01/13 08:54:57;;;;;;;49.67;26.88;;;1.00;99.90;;;;;;5029767;28;20549;-73
2021/01/13 08:57:25;;;;;;;65.35;34.90;;;1.00;99.90;;;;;;5029266;28;20053;-74
2021/01/13 08:59:52;;;;;;;63.78;34.97;;;1.00;99.90;;;;;;5030066;28;20102;-74
2021/01/13 09:02:18;;;;;;;68.15;35.58;;;1.00;99.90;;;;;;5045075;28;20072;-74
2021/01/13 09:04:56;;;;;;;54.38;29.70;;;1.10;99.90;;;;;;5028981;28;20041;-73
2021/01/13 09:07:26;;;;;;;63.33;36.03;;;1.00;99.90;;;;;;5020410;28;20610;-72
2021/01/13 09:10:04;;;;;;;62.75;34.13;;;1.00;99.90;;;;;;5045519;28;20435;-71
2021/01/13 09:12:42;;;;;;;57.72;29.63;;;1.10;99.90;;;;;;5041341;28;20053;-73
2021/01/13 09:15:08;;;;;;;47.97;24.67;;;1.10;99.90;;;;;;5046216;28;20416;-73
2021/01/13 09:17:43;;;;;;;62.20;32.95;;;1.10;99.90;;;;;;5032091;28;20098;-74
2021/01/13 09:20:12;;;;;;;59.50;29.88;;;1.10;99.90;;;;;;5064836;28;20064;-74
2021/01/13 09:22:50;;;;;;;52.25;28.38;;;1.10;99.90;;;;;;5044257;28;20102;-74
2021/01/13 09:25:20;;;;;;;61.55;30.90;;;1.10;99.90;;;;;;5063918;28;20427;-73
2021/01/13 09:28:18;;;;;;;61.55;31.50;;;1.10;99.90;;;;;;5065499;28;20708;-75
2021/01/13 09:30:45;;;;;;;69.85;31.50;;;1.10;99.90;;;;;;5026605;28;20519;-75
2021/01/13 09:33:16;;;;;;;56.25;31.38;;;1.10;99.90;;;;;;5055936;28;20061;-73
2021/01/13 09:35:45;;;;;;;58.85;29.23;;;1.10;99.90;;;;;;5044252;28;20443;-73
2021/01/13 09:38:14;;;;;;;54.25;29.20;;;1.10;99.90;;;;;;5047709;28;20128;-74
2021/01/13 09:41:01;;;;;;;60.63;30.08;;;1.10;99.90;;;;;;5064196;28;20059;-74
2021/01/13 09:43:37;;;;;;;53.67;28.77;;;1.20;99.90;;;;;;5031192;28;20079;-74
2021/01/13 09:46:28;;;;;;;61.35;29.40;;;1.20;99.90;;;;;;5058485;28;20045;-75
2021/01/13 09:49:03;;;;;;;59.15;29.42;;;1.30;99.90;;;;;;5064530;28;20122;-75
2021/01/13 09:51:30;;;;;;;56.00;29.42;;;1.20;99.90;;;;;;5030244;28;20052;-74
2021/01/13 09:53:58;;;;;;;59.70;28.02;;;1.30;99.90;;;;;;5064792;28;20139;-74
2021/01/13 09:56:30;;;;;;;55.38;27.88;;;1.30;99.90;;;;;;5048132;28;20052;-73
2021/01/13 09:58:57;;;;;;;54.97;27.45;;;1.30;99.90;;;;;;5047755;28;20059;-73
2021/01/13 10:01:29;;;;;;;57.42;27.63;;;1.30;99.90;;;;;;5043406;28;20048;-75
2021/01/13 10:03:58;;;;;;;53.80;27.27;;;1.30;99.90;;;;;;5035587;28;20044;-75
2021/01/13 10:06:27;;;;;;;45.90;25.05;;;1.30;99.90;;;;;;5039965;28;20539;-74
2021/01/13 10:09:17;;;;;;;57.72;28.02;;;1.30;99.90;;;;;;5041265;28;20063;-75
2021/01/13 10:11:55;;;;;;;52.33;27.42;;;1.30;99.90;;;;;;5046373;28;20480;-75
2021/01/13 10:14:23;;;;;;;50.95;26.38;;;1.30;99.90;;;;;;5063057;28;20212;-75
2021/01/13 10:16:50;;;;;;;50.25;28.38;;;1.40;99.90;;;;;;5044714;28;20045;-75
2021/01/13 10:19:19;;;;;;;53.13;25.90;;;1.40;99.90;;;;;;5063842;28;20059;-75
2021/01/13 10:21:50;;;;;;;44.38;22.48;;;1.40;99.90;;;;;;5065192;28;20048;-75
2021/01/13 10:24:18;;;;;;;44.30;20.85;;;1.40;99.90;;;;;;5065174;28;20063;-74
2021/01/13 10:26:48;;;;;;;44.05;22.98;;;1.30;99.90;;;;;;5064002;28;20103;-71
2021/01/13 10:29:21;;;;;;;44.17;21.55;;;1.30;99.90;;;;;;5043970;28;20080;-75
2021/01/13 10:31:48;;;;;;;46.83;22.08;;;1.20;99.90;;;;;;5038584;28;20124;-73
2021/01/13 10:34:15;;;;;;;37.08;20.13;;;1.20;99.90;;;;;;5059761;28;20053;-75
2021/01/13 10:36:49;;;;;;;42.03;20.30;;;1.30;99.90;;;;;;5060261;28;20045;-73
2021/01/13 10:39:27;;;;;;;41.22;20.02;;;1.30;99.90;;;;;;5045231;28;20049;-76
2021/01/13 10:41:56;;;;;;;35.25;19.10;;;1.40;99.90;;;;;;5028107;28;20076;-76
2021/01/13 10:44:24;;;;;;;39.05;21.23;;;1.40;99.90;;;;;;5062717;28;20051;-74
2021/01/13 10:47:02;;;;;;;32.40;16.85;;;1.40;99.90;;;;;;5031937;28;20705;-75
2021/01/13 10:49:42;;;;;;;35.25;16.48;;;1.50;99.90;;;;;;5019871;28;20049;-72
2021/01/13 10:52:18;;;;;;;42.55;19.10;;;1.50;99.90;;;;;;5044629;28;20405;-72
2021/01/13 10:54:50;;;;;;;27.88;16.50;;;1.60;99.90;;;;;;5011604;28;20055;-75
2021/01/13 10:57:27;;;;;;;43.28;19.48;;;1.70;99.90;;;;;;5043186;28;20080;-74
2021/01/13 11:00:04;;;;;;;38.65;18.45;;;1.70;99.90;;;;;;5024052;28;20053;-74
2021/01/13 11:02:31;;;;;;;31.23;18.30;;;1.70;99.90;;;;;;5045819;28;20220;-77
2021/01/13 11:05:02;;;;;;;34.17;16.80;;;1.80;99.90;;;;;;5055973;28;20044;-76
2021/01/13 11:07:40;;;;;;;33.15;18.02;;;1.70;99.90;;;;;;5007932;28;20095;-75
2021/01/13 11:10:13;;;;;;;29.90;16.10;;;1.80;99.90;;;;;;5010814;28;20041;-77
2021/01/13 11:12:40;;;;;;;22.13;13.07;;;1.80;99.90;;;;;;5027040;28;20475;-76
2021/01/13 11:15:08;;;;;;;25.90;14.43;;;1.80;99.90;;;;;;5029624;28;20053;-76
2021/01/13 11:17:35;;;;;;;31.52;16.50;;;1.80;99.90;;;;;;5030818;28;20701;-76
2021/01/13 11:20:07;;;;;;;37.45;16.67;;;1.80;99.90;;;;;;5018006;28;20049;-77
2021/01/13 11:22:46;;;;;;;30.58;15.85;;;1.80;99.90;;;;;;5028558;28;20044;-77
2021/01/13 11:25:23;;;;;;;33.03;17.23;;;1.80;99.90;;;;;;5045113;28;20063;-75
2021/01/13 11:28:13;;;;;;;30.83;14.88;;;1.80;99.90;;;;;;5030879;28;20049;-79
2021/01/13 11:30:46;;;;;;;31.40;16.35;;;1.80;99.90;;;;;;5023498;28;20112;-82
2021/01/13 11:33:15;;;;;;;30.42;17.45;;;1.80;99.90;;;;;;5056196;28;20040;-80
2021/01/13 11:35:44;;;;;;;27.00;16.67;;;1.80;99.90;;;;;;5077068;28;20037;-82
2021/01/13 11:38:39;;;;;;;29.80;16.25;;;1.80;99.90;;;;;;5038315;28;20187;-85
2021/01/13 11:41:31;;;;;;;36.15;17.05;;;1.80;99.90;;;;;;5037924;28;20044;-87
2021/01/13 11:44:28;;;;;;;29.13;15.70;;;1.80;99.90;;;;;;5036635;28;20497;-88
2021/01/13 11:47:09;;;;;;;25.95;16.52;;;1.70;99.90;;;;;;5016146;28;20046;-85
2021/01/13 11:49:52;;;;;;;39.20;16.55;;;1.80;99.90;;;;;;5016077;28;20053;-86
2021/01/13 11:52:22;;;;;;;24.05;12.18;;;1.80;99.90;;;;;;5050306;28;20864;-81
2021/01/13 11:54:50;;;;;;;25.23;15.40;;;1.90;99.90;;;;;;5049510;28;20052;-81
2021/01/13 11:57:31;;;;;;;28.38;15.98;;;1.90;99.90;;;;;;5049226;28;20260;-80
2021/01/13 12:00:20;;;;;;;24.88;15.50;;;1.90;99.90;;;;;;5049649;28;20048;-78
2021/01/13 12:03:00;;;;;;;28.42;16.10;;;1.90;99.90;;;;;;5038293;28;20045;-78
2021/01/13 12:05:35;;;;;;;25.90;16.23;;;2.00;99.90;;;;;;5027817;28;20051;-78
2021/01/13 12:08:10;;;;;;;26.23;16.08;;;2.00;99.90;;;;;;5048310;28;20045;-77
2021/01/13 12:10:38;;;;;;;25.45;16.33;;;1.90;99.90;;;;;;5048642;28;20471;-77
2021/01/13 12:13:30;;;;;;;26.10;15.98;;;1.90;99.90;;;;;;5064176;28;20098;-77
2021/01/13 12:16:05;;;;;;;26.02;16.75;;;1.90;99.90;;;;;;5009901;28;20080;-76
2021/01/13 12:18:43;;;;;;;26.40;16.20;;;1.80;99.90;;;;;;5021910;28;20106;-77
2021/01/13 12:21:14;;;;;;;21.60;15.05;;;1.90;99.90;;;;;;5025427;28;20064;-77
2021/01/13 12:23:41;;;;;;;25.58;15.05;;;1.90;99.90;;;;;;5030665;28;20154;-77
2021/01/13 12:26:19;;;;;;;31.17;17.48;;;1.90;99.90;;;;;;5015348;28;20135;-76
2021/01/13 12:28:48;;;;;;;26.85;16.05;;;1.90;99.90;;;;;;5030536;28;20466;-77
2021/01/13 12:31:15;;;;;;;26.48;15.18;;;2.00;99.90;;;;;;5051857;28;20687;-75
2021/01/13 12:34:02;;;;;;;28.65;14.55;;;2.00;99.90;;;;;;5051172;28;20044;-79
2021/01/13 12:36:36;;;;;;;22.58;13.18;;;2.00;99.90;;;;;;5030477;28;20048;-77
2021/01/13 12:39:04;;;;;;;24.38;14.95;;;2.00;99.90;;;;;;5032941;28;20037;-78
2021/01/13 12:41:34;;;;;;;24.48;14.60;;;2.00;99.90;;;;;;5023870;28;20063;-77
2021/01/13 12:44:03;;;;;;;22.95;13.55;;;2.10;99.90;;;;;;5049260;28;20110;-79
2021/01/13 12:46:33;;;;;;;17.02;12.13;;;2.10;99.90;;;;;;5019127;28;20053;-80
2021/01/13 12:49:01;;;;;;;30.40;13.38;;;2.10;99.90;;;;;;5014807;28;20776;-79
2021/01/13 12:51:28;;;;;;;17.77;11.75;;;2.10;99.90;;;;;;5039688;28;20044;-80
2021/01/13 12:53:59;;;;;;;26.85;13.73;;;2.20;99.90;;;;;;5031111;28;20139;-79
2021/01/13 12:56:31;;;;;;;23.63;14.18;;;2.20;99.90;;;;;;5016197;28;20045;-79
2021/01/13 12:58:59;;;;;;;19.63;13.90;;;2.20;99.90;;;;;;5002724;28;20081;-78
2021/01/13 13:01:51;;;;;;;26.48;15.55;;;2.30;99.90;;;;;;5036096;28;20125;-77
2021/01/13 13:04:17;;;;;;;23.08;14.27;;;2.30;99.90;;;;;;5031889;28;20045;-81
2021/01/13 13:06:45;;;;;;;20.15;13.50;;;2.30;99.90;;;;;;5026076;28;20037;-78
2021/01/13 13:09:14;;;;;;;27.15;14.90;;;2.30;99.90;;;;;;5030627;28;20068;-79
2021/01/13 13:11:46;;;;;;;23.38;15.10;;;2.30;99.90;;;;;;5042609;28;20099;-79
2021/01/13 13:14:12;;;;;;;24.27;14.23;;;2.40;99.90;;;;;;5031793;28;20080;-80